sensor_id;sensor_type;location;lat;lon;timestamp;P1;durP1;ratioP1;P2;durP2;ratioP2
77202;SDS011;66327;50.096;8.498;2024-01-07T00:00:46;4.30;;;2.15;;
77202;SDS011;66327;50.096;8.498;2024-01-07T00:03:12;4.15;;;1.75;;
77202;SDS011;66327;50.096;8.498;2024-01-07T00:05:38;5.55;;;2.65;;
77202;SDS011;66327;50.096;8.498;2024-01-07T00:08:05;5.43;;;2.38;;
77202;SDS011;66327;50.096;8.498;2024-01-07T00:10:31;4.75;;;2.17;;
77202;SDS011;66327;50.096;8.498;2024-01-07T00:12:57;5.40;;;2.50;;
77202;SDS011;66327;50.096;8.498;2024-01-07T00:15:24;3.55;;;1.88;;
77202;SDS011;66327;50.096;8.498;2024-01-07T00:17:53;4.63;;;2.10;;
77202;SDS011;66327;50.096;8.498;2024-01-07T00:20:19;3.78;;;2.00;;
77202;SDS011;66327;50.096;8.498;2024-01-07T00:22:46;5.18;;;2.60;;
77202;SDS011;66327;50.096;8.498;2024-01-07T00:25:12;6.50;;;2.92;;
77202;SDS011;66327;50.096;8.498;2024-01-07T00:27:39;7.75;;;3.00;;
77202;SDS011;66327;50.096;8.498;2024-01-07T00:30:05;5.60;;;2.63;;
77202;SDS011;66327;50.096;8.498;2024-01-07T00:32:32;3.70;;;2.15;;
77202;SDS011;66327;50.096;8.498;2024-01-07T00:34:58;2.72;;;1.63;;
77202;SDS011;66327;50.096;8.498;2024-01-07T00:37:24;4.05;;;1.83;;
77202;SDS011;66327;50.096;8.498;2024-01-07T00:39:51;3.72;;;1.90;;
77202;SDS011;66327;50.096;8.498;2024-01-07T00:42:17;4.65;;;2.20;;
77202;SDS011;66327;50.096;8.498;2024-01-07T00:44:43;5.22;;;2.50;;
77202;SDS011;66327;50.096;8.498;2024-01-07T00:47:10;5.18;;;2.38;;
77202;SDS011;66327;50.096;8.498;2024-01-07T00:49:36;3.30;;;2.00;;
77202;SDS011;66327;50.096;8.498;2024-01-07T00:52:03;4.53;;;1.92;;
77202;SDS011;66327;50.096;8.498;2024-01-07T00:54:29;3.47;;;1.80;;
77202;SDS011;66327;50.096;8.498;2024-01-07T00:56:55;2.92;;;1.70;;
77202;SDS011;66327;50.096;8.498;2024-01-07T00:59:22;4.03;;;1.95;;
77202;SDS011;66327;50.096;8.498;2024-01-07T01:01:48;4.20;;;2.15;;
77202;SDS011;66327;50.096;8.498;2024-01-07T01:04:14;4.15;;;1.95;;
77202;SDS011;66327;50.096;8.498;2024-01-07T01:06:41;5.43;;;2.03;;
77202;SDS011;66327;50.096;8.498;2024-01-07T01:09:07;4.32;;;2.05;;
77202;SDS011;66327;50.096;8.498;2024-01-07T01:11:34;2.83;;;1.35;;
77202;SDS011;66327;50.096;8.498;2024-01-07T01:14:00;4.03;;;2.10;;
77202;SDS011;66327;50.096;8.498;2024-01-07T01:16:26;4.18;;;2.00;;
77202;SDS011;66327;50.096;8.498;2024-01-07T01:18:52;1.88;;;1.10;;
77202;SDS011;66327;50.096;8.498;2024-01-07T01:21:19;3.65;;;1.90;;
77202;SDS011;66327;50.096;8.498;2024-01-07T01:23:46;3.20;;;1.65;;
77202;SDS011;66327;50.096;8.498;2024-01-07T01:26:12;4.78;;;2.22;;
77202;SDS011;66327;50.096;8.498;2024-01-07T01:28:38;11.10;;;3.55;;
77202;SDS011;66327;50.096;8.498;2024-01-07T01:31:05;4.80;;;1.77;;
77202;SDS011;66327;50.096;8.498;2024-01-07T01:33:31;3.35;;;1.67;;
77202;SDS011;66327;50.096;8.498;2024-01-07T01:35:58;4.18;;;2.05;;
77202;SDS011;66327;50.096;8.498;2024-01-07T01:38:24;3.42;;;1.55;;
77202;SDS011;66327;50.096;8.498;2024-01-07T01:40:53;3.22;;;1.60;;
77202;SDS011;66327;50.096;8.498;2024-01-07T01:43:24;2.58;;;1.25;;
77202;SDS011;66327;50.096;8.498;2024-01-07T01:45:50;2.88;;;1.02;;
77202;SDS011;66327;50.096;8.498;2024-01-07T01:48:17;3.90;;;1.75;;
77202;SDS011;66327;50.096;8.498;2024-01-07T01:50:43;3.17;;;1.67;;
77202;SDS011;66327;50.096;8.498;2024-01-07T01:53:10;2.88;;;1.50;;
77202;SDS011;66327;50.096;8.498;2024-01-07T01:55:36;3.42;;;1.60;;
77202;SDS011;66327;50.096;8.498;2024-01-07T01:58:02;4.05;;;1.70;;
77202;SDS011;66327;50.096;8.498;2024-01-07T02:00:30;2.60;;;1.27;;
77202;SDS011;66327;50.096;8.498;2024-01-07T02:02:56;3.63;;;1.88;;
77202;SDS011;66327;50.096;8.498;2024-01-07T02:05:23;4.25;;;1.80;;
77202;SDS011;66327;50.096;8.498;2024-01-07T02:07:49;3.50;;;1.65;;
77202;SDS011;66327;50.096;8.498;2024-01-07T02:10:16;3.28;;;1.55;;
77202;SDS011;66327;50.096;8.498;2024-01-07T02:12:42;2.10;;;0.68;;
77202;SDS011;66327;50.096;8.498;2024-01-07T02:15:08;2.80;;;1.58;;
77202;SDS011;66327;50.096;8.498;2024-01-07T02:17:34;3.03;;;1.50;;
77202;SDS011;66327;50.096;8.498;2024-01-07T02:20:01;2.75;;;1.35;;
77202;SDS011;66327;50.096;8.498;2024-01-07T02:22:27;3.55;;;1.60;;
77202;SDS011;66327;50.096;8.498;2024-01-07T02:24:54;2.60;;;1.33;;
77202;SDS011;66327;50.096;8.498;2024-01-07T02:27:20;2.83;;;1.50;;
77202;SDS011;66327;50.096;8.498;2024-01-07T02:29:46;2.95;;;1.35;;
77202;SDS011;66327;50.096;8.498;2024-01-07T02:32:13;2.92;;;1.35;;
77202;SDS011;66327;50.096;8.498;2024-01-07T02:34:39;3.10;;;1.60;;
77202;SDS011;66327;50.096;8.498;2024-01-07T02:37:05;2.50;;;1.35;;
77202;SDS011;66327;50.096;8.498;2024-01-07T02:39:32;3.15;;;1.70;;
77202;SDS011;66327;50.096;8.498;2024-01-07T02:41:58;1.98;;;0.98;;
77202;SDS011;66327;50.096;8.498;2024-01-07T02:44:25;3.13;;;1.70;;
77202;SDS011;66327;50.096;8.498;2024-01-07T02:46:51;3.38;;;1.60;;
77202;SDS011;66327;50.096;8.498;2024-01-07T02:49:17;3.40;;;1.50;;
77202;SDS011;66327;50.096;8.498;2024-01-07T02:51:44;3.35;;;1.70;;
77202;SDS011;66327;50.096;8.498;2024-01-07T02:54:15;2.35;;;1.50;;
77202;SDS011;66327;50.096;8.498;2024-01-07T02:56:41;3.45;;;1.80;;
77202;SDS011;66327;50.096;8.498;2024-01-07T02:59:08;3.33;;;1.48;;
77202;SDS011;66327;50.096;8.498;2024-01-07T03:01:34;4.63;;;2.03;;
77202;SDS011;66327;50.096;8.498;2024-01-07T03:04:07;1.73;;;0.95;;
77202;SDS011;66327;50.096;8.498;2024-01-07T03:06:34;3.47;;;1.80;;
77202;SDS011;66327;50.096;8.498;2024-01-07T03:09:00;4.38;;;1.83;;
77202;SDS011;66327;50.096;8.498;2024-01-07T03:11:26;3.13;;;1.75;;
77202;SDS011;66327;50.096;8.498;2024-01-07T03:13:53;2.83;;;1.55;;
77202;SDS011;66327;50.096;8.498;2024-01-07T03:16:20;3.17;;;1.63;;
77202;SDS011;66327;50.096;8.498;2024-01-07T03:18:46;3.67;;;1.70;;
77202;SDS011;66327;50.096;8.498;2024-01-07T03:21:17;4.43;;;2.10;;
77202;SDS011;66327;50.096;8.498;2024-01-07T03:23:43;3.80;;;1.77;;
77202;SDS011;66327;50.096;8.498;2024-01-07T03:26:09;4.85;;;2.08;;
77202;SDS011;66327;50.096;8.498;2024-01-07T03:28:36;4.18;;;2.10;;
77202;SDS011;66327;50.096;8.498;2024-01-07T03:31:09;4.63;;;2.08;;
77202;SDS011;66327;50.096;8.498;2024-01-07T03:33:39;4.13;;;2.20;;
77202;SDS011;66327;50.096;8.498;2024-01-07T03:36:06;4.43;;;1.88;;
77202;SDS011;66327;50.096;8.498;2024-01-07T03:38:32;4.68;;;2.08;;
77202;SDS011;66327;50.096;8.498;2024-01-07T03:40:59;5.15;;;2.40;;
77202;SDS011;66327;50.096;8.498;2024-01-07T03:43:25;2.35;;;1.10;;
77202;SDS011;66327;50.096;8.498;2024-01-07T03:45:51;5.88;;;2.80;;
77202;SDS011;66327;50.096;8.498;2024-01-07T03:48:18;4.22;;;2.30;;
77202;SDS011;66327;50.096;8.498;2024-01-07T03:50:44;3.53;;;1.95;;
77202;SDS011;66327;50.096;8.498;2024-01-07T03:53:10;4.60;;;2.10;;
77202;SDS011;66327;50.096;8.498;2024-01-07T03:55:37;4.70;;;2.00;;
77202;SDS011;66327;50.096;8.498;2024-01-07T03:58:04;4.45;;;2.40;;
77202;SDS011;66327;50.096;8.498;2024-01-07T04:00:30;4.55;;;2.30;;
77202;SDS011;66327;50.096;8.498;2024-01-07T04:02:57;4.88;;;2.40;;
77202;SDS011;66327;50.096;8.498;2024-01-07T04:05:23;5.65;;;2.55;;
77202;SDS011;66327;50.096;8.498;2024-01-07T04:07:49;6.72;;;2.95;;
77202;SDS011;66327;50.096;8.498;2024-01-07T04:10:16;5.78;;;2.42;;
77202;SDS011;66327;50.096;8.498;2024-01-07T04:12:42;5.75;;;2.40;;
77202;SDS011;66327;50.096;8.498;2024-01-07T04:15:09;6.03;;;2.83;;
77202;SDS011;66327;50.096;8.498;2024-01-07T04:17:36;6.50;;;3.00;;
77202;SDS011;66327;50.096;8.498;2024-01-07T04:20:02;4.45;;;2.22;;
77202;SDS011;66327;50.096;8.498;2024-01-07T04:22:29;7.07;;;2.60;;
77202;SDS011;66327;50.096;8.498;2024-01-07T04:24:55;7.63;;;2.72;;
77202;SDS011;66327;50.096;8.498;2024-01-07T04:27:22;6.50;;;2.78;;
77202;SDS011;66327;50.096;8.498;2024-01-07T04:29:48;6.00;;;2.60;;
77202;SDS011;66327;50.096;8.498;2024-01-07T04:32:14;6.90;;;2.40;;
77202;SDS011;66327;50.096;8.498;2024-01-07T04:34:40;5.80;;;2.50;;
77202;SDS011;66327;50.096;8.498;2024-01-07T04:37:07;5.57;;;2.60;;
77202;SDS011;66327;50.096;8.498;2024-01-07T04:39:33;6.30;;;2.20;;
77202;SDS011;66327;50.096;8.498;2024-01-07T04:41:59;4.75;;;2.40;;
77202;SDS011;66327;50.096;8.498;2024-01-07T04:44:26;5.28;;;2.05;;
77202;SDS011;66327;50.096;8.498;2024-01-07T04:46:52;4.05;;;1.90;;
77202;SDS011;66327;50.096;8.498;2024-01-07T04:49:18;4.45;;;2.42;;
77202;SDS011;66327;50.096;8.498;2024-01-07T04:51:45;4.38;;;1.95;;
77202;SDS011;66327;50.096;8.498;2024-01-07T04:54:11;3.53;;;2.00;;
77202;SDS011;66327;50.096;8.498;2024-01-07T04:56:37;2.65;;;1.55;;
77202;SDS011;66327;50.096;8.498;2024-01-07T04:59:04;3.80;;;1.88;;
77202;SDS011;66327;50.096;8.498;2024-01-07T05:01:32;7.78;;;3.20;;
77202;SDS011;66327;50.096;8.498;2024-01-07T05:03:58;6.50;;;2.88;;
77202;SDS011;66327;50.096;8.498;2024-01-07T05:06:25;6.63;;;2.97;;
77202;SDS011;66327;50.096;8.498;2024-01-07T05:08:51;5.38;;;2.75;;
77202;SDS011;66327;50.096;8.498;2024-01-07T05:11:17;7.45;;;3.58;;
77202;SDS011;66327;50.096;8.498;2024-01-07T05:13:44;9.02;;;3.47;;
77202;SDS011;66327;50.096;8.498;2024-01-07T05:16:19;9.63;;;3.75;;
77202;SDS011;66327;50.096;8.498;2024-01-07T05:18:46;10.60;;;3.80;;
77202;SDS011;66327;50.096;8.498;2024-01-07T05:21:15;9.80;;;3.72;;
77202;SDS011;66327;50.096;8.498;2024-01-07T05:23:42;8.38;;;4.13;;
77202;SDS011;66327;50.096;8.498;2024-01-07T05:26:09;11.05;;;4.03;;
77202;SDS011;66327;50.096;8.498;2024-01-07T05:28:36;11.32;;;4.63;;
77202;SDS011;66327;50.096;8.498;2024-01-07T05:31:02;8.88;;;3.58;;
77202;SDS011;66327;50.096;8.498;2024-01-07T05:33:29;8.40;;;3.80;;
77202;SDS011;66327;50.096;8.498;2024-01-07T05:35:55;10.88;;;5.40;;
77202;SDS011;66327;50.096;8.498;2024-01-07T05:38:22;5.43;;;2.58;;
77202;SDS011;66327;50.096;8.498;2024-01-07T05:40:48;12.25;;;5.07;;
77202;SDS011;66327;50.096;8.498;2024-01-07T05:43:14;12.75;;;5.18;;
77202;SDS011;66327;50.096;8.498;2024-01-07T05:45:42;9.50;;;4.10;;
77202;SDS011;66327;50.096;8.498;2024-01-07T05:48:08;11.75;;;5.28;;
77202;SDS011;66327;50.096;8.498;2024-01-07T05:50:35;6.88;;;3.63;;
77202;SDS011;66327;50.096;8.498;2024-01-07T05:53:01;10.50;;;4.80;;
77202;SDS011;66327;50.096;8.498;2024-01-07T05:55:27;11.93;;;5.05;;
77202;SDS011;66327;50.096;8.498;2024-01-07T05:57:53;9.20;;;4.47;;
77202;SDS011;66327;50.096;8.498;2024-01-07T06:00:20;12.38;;;5.40;;
77202;SDS011;66327;50.096;8.498;2024-01-07T06:02:46;9.27;;;4.55;;
77202;SDS011;66327;50.096;8.498;2024-01-07T06:05:12;11.45;;;5.00;;
77202;SDS011;66327;50.096;8.498;2024-01-07T06:07:39;13.43;;;5.57;;
77202;SDS011;66327;50.096;8.498;2024-01-07T06:10:05;10.38;;;4.25;;
77202;SDS011;66327;50.096;8.498;2024-01-07T06:12:32;10.98;;;5.20;;
77202;SDS011;66327;50.096;8.498;2024-01-07T06:14:59;13.35;;;4.80;;
77202;SDS011;66327;50.096;8.498;2024-01-07T06:17:25;9.07;;;4.80;;
77202;SDS011;66327;50.096;8.498;2024-01-07T06:19:51;10.15;;;4.45;;
77202;SDS011;66327;50.096;8.498;2024-01-07T06:22:17;11.63;;;5.43;;
77202;SDS011;66327;50.096;8.498;2024-01-07T06:24:44;8.60;;;3.42;;
77202;SDS011;66327;50.096;8.498;2024-01-07T06:27:11;6.22;;;2.15;;
77202;SDS011;66327;50.096;8.498;2024-01-07T06:29:37;6.20;;;3.13;;
77202;SDS011;66327;50.096;8.498;2024-01-07T06:32:03;5.68;;;2.75;;
77202;SDS011;66327;50.096;8.498;2024-01-07T06:34:30;6.68;;;3.50;;
77202;SDS011;66327;50.096;8.498;2024-01-07T06:36:56;7.97;;;2.92;;
77202;SDS011;66327;50.096;8.498;2024-01-07T06:39:23;5.10;;;2.72;;
77202;SDS011;66327;50.096;8.498;2024-01-07T06:41:49;5.25;;;2.45;;
77202;SDS011;66327;50.096;8.498;2024-01-07T06:44:15;5.50;;;3.25;;
77202;SDS011;66327;50.096;8.498;2024-01-07T06:46:41;6.85;;;3.40;;
77202;SDS011;66327;50.096;8.498;2024-01-07T06:49:08;2.38;;;1.58;;
77202;SDS011;66327;50.096;8.498;2024-01-07T06:51:35;4.57;;;2.58;;
77202;SDS011;66327;50.096;8.498;2024-01-07T06:54:01;5.60;;;2.50;;
77202;SDS011;66327;50.096;8.498;2024-01-07T06:56:28;6.93;;;3.65;;
77202;SDS011;66327;50.096;8.498;2024-01-07T06:58:54;6.38;;;3.78;;
77202;SDS011;66327;50.096;8.498;2024-01-07T07:01:21;6.38;;;2.78;;
77202;SDS011;66327;50.096;8.498;2024-01-07T07:03:49;5.45;;;2.90;;
77202;SDS011;66327;50.096;8.498;2024-01-07T07:06:16;8.00;;;3.60;;
77202;SDS011;66327;50.096;8.498;2024-01-07T07:08:42;4.97;;;2.70;;
77202;SDS011;66327;50.096;8.498;2024-01-07T07:11:08;8.05;;;3.75;;
77202;SDS011;66327;50.096;8.498;2024-01-07T07:13:34;7.38;;;2.65;;
77202;SDS011;66327;50.096;8.498;2024-01-07T07:16:01;9.18;;;3.88;;
77202;SDS011;66327;50.096;8.498;2024-01-07T07:18:27;6.47;;;4.00;;
77202;SDS011;66327;50.096;8.498;2024-01-07T07:20:53;3.75;;;2.35;;
77202;SDS011;66327;50.096;8.498;2024-01-07T07:23:20;4.25;;;2.08;;
77202;SDS011;66327;50.096;8.498;2024-01-07T07:25:46;6.22;;;3.67;;
77202;SDS011;66327;50.096;8.498;2024-01-07T07:28:12;6.20;;;3.30;;
77202;SDS011;66327;50.096;8.498;2024-01-07T07:30:39;8.13;;;3.22;;
77202;SDS011;66327;50.096;8.498;2024-01-07T07:33:05;9.35;;;3.33;;
77202;SDS011;66327;50.096;8.498;2024-01-07T07:35:32;11.18;;;4.13;;
77202;SDS011;66327;50.096;8.498;2024-01-07T07:37:58;7.15;;;3.17;;
77202;SDS011;66327;50.096;8.498;2024-01-07T07:40:24;8.88;;;3.67;;
77202;SDS011;66327;50.096;8.498;2024-01-07T07:42:51;6.38;;;3.08;;
77202;SDS011;66327;50.096;8.498;2024-01-07T07:45:17;7.75;;;4.00;;
77202;SDS011;66327;50.096;8.498;2024-01-07T07:47:44;9.38;;;4.25;;
77202;SDS011;66327;50.096;8.498;2024-01-07T07:50:11;8.27;;;4.18;;
77202;SDS011;66327;50.096;8.498;2024-01-07T07:52:38;7.38;;;3.97;;
77202;SDS011;66327;50.096;8.498;2024-01-07T07:55:04;14.20;;;5.47;;
77202;SDS011;66327;50.096;8.498;2024-01-07T07:57:33;10.85;;;4.38;;
77202;SDS011;66327;50.096;8.498;2024-01-07T07:59:59;11.23;;;3.88;;
77202;SDS011;66327;50.096;8.498;2024-01-07T08:02:29;10.63;;;3.88;;
77202;SDS011;66327;50.096;8.498;2024-01-07T08:04:56;9.70;;;4.75;;
77202;SDS011;66327;50.096;8.498;2024-01-07T08:07:22;7.75;;;3.13;;
77202;SDS011;66327;50.096;8.498;2024-01-07T08:09:49;9.50;;;4.63;;
77202;SDS011;66327;50.096;8.498;2024-01-07T08:12:15;12.23;;;4.75;;
77202;SDS011;66327;50.096;8.498;2024-01-07T08:14:41;10.10;;;4.10;;
77202;SDS011;66327;50.096;8.498;2024-01-07T08:17:08;8.18;;;4.13;;
77202;SDS011;66327;50.096;8.498;2024-01-07T08:19:35;7.55;;;4.20;;
77202;SDS011;66327;50.096;8.498;2024-01-07T08:22:02;11.70;;;5.57;;
77202;SDS011;66327;50.096;8.498;2024-01-07T08:24:28;11.02;;;4.85;;
77202;SDS011;66327;50.096;8.498;2024-01-07T08:26:54;12.77;;;5.85;;
77202;SDS011;66327;50.096;8.498;2024-01-07T08:29:21;6.00;;;3.22;;
77202;SDS011;66327;50.096;8.498;2024-01-07T08:31:47;10.95;;;4.82;;
77202;SDS011;66327;50.096;8.498;2024-01-07T08:34:14;8.85;;;3.60;;
77202;SDS011;66327;50.096;8.498;2024-01-07T08:39:08;8.38;;;3.58;;
77202;SDS011;66327;50.096;8.498;2024-01-07T08:41:34;10.80;;;4.80;;
77202;SDS011;66327;50.096;8.498;2024-01-07T08:44:00;11.45;;;5.18;;
77202;SDS011;66327;50.096;8.498;2024-01-07T08:46:27;13.13;;;6.43;;
77202;SDS011;66327;50.096;8.498;2024-01-07T08:48:53;10.63;;;4.80;;
77202;SDS011;66327;50.096;8.498;2024-01-07T08:51:20;12.77;;;5.28;;
77202;SDS011;66327;50.096;8.498;2024-01-07T08:53:46;13.45;;;5.32;;
77202;SDS011;66327;50.096;8.498;2024-01-07T08:56:12;9.63;;;4.35;;
77202;SDS011;66327;50.096;8.498;2024-01-07T08:58:40;9.93;;;3.85;;
77202;SDS011;66327;50.096;8.498;2024-01-07T09:01:06;11.38;;;4.63;;
77202;SDS011;66327;50.096;8.498;2024-01-07T09:03:33;10.95;;;4.80;;
77202;SDS011;66327;50.096;8.498;2024-01-07T09:05:59;10.43;;;4.55;;
77202;SDS011;66327;50.096;8.498;2024-01-07T09:08:25;8.05;;;2.88;;
77202;SDS011;66327;50.096;8.498;2024-01-07T09:10:52;6.18;;;3.60;;
77202;SDS011;66327;50.096;8.498;2024-01-07T09:13:18;9.18;;;3.92;;
77202;SDS011;66327;50.096;8.498;2024-01-07T09:15:45;6.05;;;2.35;;
77202;SDS011;66327;50.096;8.498;2024-01-07T09:18:11;10.07;;;4.18;;
77202;SDS011;66327;50.096;8.498;2024-01-07T09:20:38;11.43;;;4.95;;
77202;SDS011;66327;50.096;8.498;2024-01-07T09:23:04;7.35;;;3.40;;
77202;SDS011;66327;50.096;8.498;2024-01-07T09:25:30;6.70;;;3.35;;
77202;SDS011;66327;50.096;8.498;2024-01-07T09:27:57;6.97;;;3.67;;
77202;SDS011;66327;50.096;8.498;2024-01-07T09:30:23;7.43;;;4.35;;
77202;SDS011;66327;50.096;8.498;2024-01-07T09:32:49;8.32;;;4.38;;
77202;SDS011;66327;50.096;8.498;2024-01-07T09:35:16;8.07;;;3.63;;
77202;SDS011;66327;50.096;8.498;2024-01-07T09:37:43;9.55;;;4.45;;
77202;SDS011;66327;50.096;8.498;2024-01-07T09:40:09;12.13;;;5.15;;
77202;SDS011;66327;50.096;8.498;2024-01-07T09:42:36;6.20;;;3.22;;
77202;SDS011;66327;50.096;8.498;2024-01-07T09:45:03;9.65;;;4.28;;
77202;SDS011;66327;50.096;8.498;2024-01-07T09:47:30;6.72;;;3.85;;
77202;SDS011;66327;50.096;8.498;2024-01-07T09:49:56;5.82;;;2.88;;
77202;SDS011;66327;50.096;8.498;2024-01-07T09:52:23;5.90;;;2.80;;
77202;SDS011;66327;50.096;8.498;2024-01-07T09:54:51;6.32;;;2.88;;
77202;SDS011;66327;50.096;8.498;2024-01-07T09:57:18;4.97;;;2.80;;
77202;SDS011;66327;50.096;8.498;2024-01-07T09:59:45;7.53;;;3.67;;
77202;SDS011;66327;50.096;8.498;2024-01-07T10:02:13;9.75;;;4.07;;
77202;SDS011;66327;50.096;8.498;2024-01-07T10:04:39;9.20;;;4.07;;
77202;SDS011;66327;50.096;8.498;2024-01-07T10:07:05;7.15;;;3.55;;
77202;SDS011;66327;50.096;8.498;2024-01-07T10:09:35;5.90;;;3.03;;
77202;SDS011;66327;50.096;8.498;2024-01-07T10:12:01;4.10;;;2.67;;
77202;SDS011;66327;50.096;8.498;2024-01-07T10:14:29;9.90;;;5.07;;
77202;SDS011;66327;50.096;8.498;2024-01-07T10:16:59;6.65;;;3.88;;
77202;SDS011;66327;50.096;8.498;2024-01-07T10:19:25;8.63;;;3.72;;
77202;SDS011;66327;50.096;8.498;2024-01-07T10:22:02;7.18;;;3.60;;
77202;SDS011;66327;50.096;8.498;2024-01-07T10:24:35;6.60;;;4.20;;
77202;SDS011;66327;50.096;8.498;2024-01-07T10:27:02;7.97;;;3.92;;
77202;SDS011;66327;50.096;8.498;2024-01-07T10:29:29;6.55;;;3.88;;
77202;SDS011;66327;50.096;8.498;2024-01-07T10:31:56;3.50;;;2.42;;
77202;SDS011;66327;50.096;8.498;2024-01-07T10:34:23;7.60;;;3.95;;
77202;SDS011;66327;50.096;8.498;2024-01-07T10:36:51;5.63;;;2.95;;
77202;SDS011;66327;50.096;8.498;2024-01-07T10:39:19;9.15;;;4.15;;
77202;SDS011;66327;50.096;8.498;2024-01-07T10:41:45;5.50;;;3.70;;
77202;SDS011;66327;50.096;8.498;2024-01-07T10:44:12;8.77;;;4.45;;
77202;SDS011;66327;50.096;8.498;2024-01-07T10:46:45;9.98;;;5.07;;
77202;SDS011;66327;50.096;8.498;2024-01-07T10:49:29;6.45;;;2.83;;
77202;SDS011;66327;50.096;8.498;2024-01-07T10:52:03;6.78;;;3.70;;
77202;SDS011;66327;50.096;8.498;2024-01-07T10:54:31;8.48;;;4.03;;
77202;SDS011;66327;50.096;8.498;2024-01-07T10:57:22;7.97;;;3.88;;
77202;SDS011;66327;50.096;8.498;2024-01-07T10:59:46;5.70;;;2.72;;
77202;SDS011;66327;50.096;8.498;2024-01-07T11:02:13;9.43;;;4.20;;
77202;SDS011;66327;50.096;8.498;2024-01-07T11:04:50;2.95;;;1.88;;
77202;SDS011;66327;50.096;8.498;2024-01-07T11:12:11;5.78;;;3.28;;
77202;SDS011;66327;50.096;8.498;2024-01-07T11:14:38;5.28;;;2.28;;
77202;SDS011;66327;50.096;8.498;2024-01-07T11:17:06;8.10;;;3.50;;
77202;SDS011;66327;50.096;8.498;2024-01-07T11:19:33;4.28;;;2.17;;
77202;SDS011;66327;50.096;8.498;2024-01-07T11:24:44;7.35;;;3.42;;
77202;SDS011;66327;50.096;8.498;2024-01-07T11:27:11;8.20;;;3.88;;
77202;SDS011;66327;50.096;8.498;2024-01-07T11:29:37;5.97;;;3.63;;
77202;SDS011;66327;50.096;8.498;2024-01-07T11:32:05;8.35;;;3.38;;
77202;SDS011;66327;50.096;8.498;2024-01-07T11:34:38;6.22;;;2.85;;
77202;SDS011;66327;50.096;8.498;2024-01-07T11:37:05;8.38;;;3.80;;
77202;SDS011;66327;50.096;8.498;2024-01-07T11:39:33;5.25;;;3.15;;
77202;SDS011;66327;50.096;8.498;2024-01-07T11:42:04;7.32;;;3.03;;
77202;SDS011;66327;50.096;8.498;2024-01-07T11:44:33;6.22;;;3.17;;
77202;SDS011;66327;50.096;8.498;2024-01-07T11:47:00;8.02;;;3.40;;
77202;SDS011;66327;50.096;8.498;2024-01-07T11:49:27;4.97;;;3.00;;
77202;SDS011;66327;50.096;8.498;2024-01-07T11:51:53;7.13;;;3.75;;
77202;SDS011;66327;50.096;8.498;2024-01-07T11:54:20;4.18;;;2.47;;
77202;SDS011;66327;50.096;8.498;2024-01-07T11:56:46;7.97;;;3.47;;
77202;SDS011;66327;50.096;8.498;2024-01-07T11:59:12;4.85;;;2.97;;
77202;SDS011;66327;50.096;8.498;2024-01-07T12:01:39;4.30;;;2.67;;
77202;SDS011;66327;50.096;8.498;2024-01-07T12:04:05;7.22;;;3.78;;
77202;SDS011;66327;50.096;8.498;2024-01-07T12:06:32;6.55;;;3.20;;
77202;SDS011;66327;50.096;8.498;2024-01-07T12:08:58;5.55;;;3.58;;
77202;SDS011;66327;50.096;8.498;2024-01-07T12:11:25;11.68;;;4.68;;
77202;SDS011;66327;50.096;8.498;2024-01-07T12:13:51;6.80;;;3.38;;
77202;SDS011;66327;50.096;8.498;2024-01-07T12:16:17;5.63;;;2.95;;
77202;SDS011;66327;50.096;8.498;2024-01-07T12:18:44;9.27;;;4.20;;
77202;SDS011;66327;50.096;8.498;2024-01-07T12:21:11;5.28;;;2.90;;
77202;SDS011;66327;50.096;8.498;2024-01-07T12:23:37;6.90;;;3.15;;
77202;SDS011;66327;50.096;8.498;2024-01-07T12:26:08;7.80;;;4.13;;
77202;SDS011;66327;50.096;8.498;2024-01-07T12:28:35;4.50;;;1.45;;
77202;SDS011;66327;50.096;8.498;2024-01-07T12:31:06;7.13;;;3.63;;
77202;SDS011;66327;50.096;8.498;2024-01-07T12:33:32;8.32;;;3.67;;
77202;SDS011;66327;50.096;8.498;2024-01-07T12:36:00;8.98;;;4.13;;
77202;SDS011;66327;50.096;8.498;2024-01-07T12:38:27;10.45;;;3.85;;
77202;SDS011;66327;50.096;8.498;2024-01-07T12:40:53;4.97;;;2.63;;
77202;SDS011;66327;50.096;8.498;2024-01-07T12:43:20;10.43;;;4.63;;
77202;SDS011;66327;50.096;8.498;2024-01-07T12:45:49;5.68;;;2.58;;
77202;SDS011;66327;50.096;8.498;2024-01-07T12:48:16;9.23;;;3.75;;
77202;SDS011;66327;50.096;8.498;2024-01-07T12:50:42;6.95;;;3.03;;
77202;SDS011;66327;50.096;8.498;2024-01-07T12:53:09;10.07;;;4.03;;
77202;SDS011;66327;50.096;8.498;2024-01-07T12:55:35;4.22;;;2.13;;
77202;SDS011;66327;50.096;8.498;2024-01-07T12:58:01;11.32;;;4.55;;
77202;SDS011;66327;50.096;8.498;2024-01-07T13:00:28;10.98;;;4.20;;
77202;SDS011;66327;50.096;8.498;2024-01-07T13:02:55;5.40;;;2.70;;
77202;SDS011;66327;50.096;8.498;2024-01-07T13:05:26;8.30;;;3.53;;
77202;SDS011;66327;50.096;8.498;2024-01-07T13:07:52;6.18;;;3.20;;
77202;SDS011;66327;50.096;8.498;2024-01-07T13:10:19;7.50;;;3.47;;
77202;SDS011;66327;50.096;8.498;2024-01-07T13:12:45;7.28;;;3.03;;
77202;SDS011;66327;50.096;8.498;2024-01-07T13:15:18;8.75;;;3.55;;
77202;SDS011;66327;50.096;8.498;2024-01-07T13:17:44;4.53;;;2.05;;
77202;SDS011;66327;50.096;8.498;2024-01-07T13:20:11;5.53;;;2.35;;
77202;SDS011;66327;50.096;8.498;2024-01-07T13:22:38;4.57;;;2.13;;
77202;SDS011;66327;50.096;8.498;2024-01-07T13:25:05;3.65;;;2.20;;
77202;SDS011;66327;50.096;8.498;2024-01-07T13:27:31;4.97;;;2.88;;
77202;SDS011;66327;50.096;8.498;2024-01-07T13:30:00;5.35;;;2.75;;
77202;SDS011;66327;50.096;8.498;2024-01-07T13:32:26;3.70;;;1.65;;
77202;SDS011;66327;50.096;8.498;2024-01-07T13:34:53;6.43;;;2.78;;
77202;SDS011;66327;50.096;8.498;2024-01-07T13:37:19;8.13;;;3.47;;
77202;SDS011;66327;50.096;8.498;2024-01-07T13:39:46;6.35;;;2.75;;
77202;SDS011;66327;50.096;8.498;2024-01-07T13:42:12;4.40;;;2.50;;
77202;SDS011;66327;50.096;8.498;2024-01-07T13:44:39;5.93;;;3.33;;
77202;SDS011;66327;50.096;8.498;2024-01-07T13:47:12;7.38;;;3.53;;
77202;SDS011;66327;50.096;8.498;2024-01-07T13:49:40;10.23;;;4.30;;
77202;SDS011;66327;50.096;8.498;2024-01-07T13:52:07;5.07;;;2.88;;
77202;SDS011;66327;50.096;8.498;2024-01-07T13:54:33;8.48;;;3.20;;
77202;SDS011;66327;50.096;8.498;2024-01-07T13:56:59;6.47;;;3.33;;
77202;SDS011;66327;50.096;8.498;2024-01-07T13:59:26;4.85;;;2.35;;
77202;SDS011;66327;50.096;8.498;2024-01-07T14:01:52;4.32;;;1.83;;
77202;SDS011;66327;50.096;8.498;2024-01-07T14:04:19;3.83;;;1.80;;
77202;SDS011;66327;50.096;8.498;2024-01-07T14:06:45;7.63;;;3.95;;
77202;SDS011;66327;50.096;8.498;2024-01-07T14:09:13;5.80;;;3.03;;
77202;SDS011;66327;50.096;8.498;2024-01-07T14:11:39;4.10;;;2.88;;
77202;SDS011;66327;50.096;8.498;2024-01-07T14:14:05;5.78;;;2.55;;
77202;SDS011;66327;50.096;8.498;2024-01-07T14:16:31;5.13;;;2.45;;
77202;SDS011;66327;50.096;8.498;2024-01-07T14:18:58;2.95;;;1.85;;
77202;SDS011;66327;50.096;8.498;2024-01-07T14:21:24;5.90;;;3.05;;
77202;SDS011;66327;50.096;8.498;2024-01-07T14:23:51;6.30;;;3.35;;
77202;SDS011;66327;50.096;8.498;2024-01-07T14:26:18;7.07;;;3.28;;
77202;SDS011;66327;50.096;8.498;2024-01-07T14:28:49;7.90;;;3.67;;
77202;SDS011;66327;50.096;8.498;2024-01-07T14:31:36;2.55;;;1.67;;
77202;SDS011;66327;50.096;8.498;2024-01-07T14:34:03;5.97;;;2.45;;
77202;SDS011;66327;50.096;8.498;2024-01-07T14:36:29;4.47;;;2.33;;
77202;SDS011;66327;50.096;8.498;2024-01-07T14:38:56;3.05;;;1.80;;
77202;SDS011;66327;50.096;8.498;2024-01-07T14:41:22;7.63;;;2.75;;
77202;SDS011;66327;50.096;8.498;2024-01-07T14:43:48;5.40;;;3.03;;
77202;SDS011;66327;50.096;8.498;2024-01-07T14:46:15;5.03;;;2.70;;
77202;SDS011;66327;50.096;8.498;2024-01-07T14:48:41;7.05;;;2.85;;
77202;SDS011;66327;50.096;8.498;2024-01-07T14:51:08;6.57;;;3.05;;
77202;SDS011;66327;50.096;8.498;2024-01-07T14:53:34;5.22;;;2.22;;